Time;durP1;ratioP1;P1;durP2;ratioP2;P2;SDS_P1;SDS_P2;PMS_P1;PMS_P2;Temp;Humidity;BMP_temperature;BMP_pressure;BME280_temperature;BME280_humidity;BME280_pressure;Samples;Min_cycle;Max_cycle;Signal;HPM_P1;HPM_P2
2022/03/28 00:00:38;;;;;;;37.72;7.07;;;;;;;;;;5025455;28;20033;-77
2022/03/28 00:03:05;;;;;;;43.55;7.75;;;;;;;;;;5025930;28;20100;-78
2022/03/28 00:05:32;;;;;;;45.03;9.45;;;;;;;;;;5025160;28;20038;-78
2022/03/28 00:07:58;;;;;;;51.80;8.32;;;;;;;;;;5023809;28;20034;-76
2022/03/28 00:10:24;;;;;;;51.90;8.65;;;;;;;;;;5025914;28;20051;-77
2022/03/28 00:12:50;;;;;;;49.08;7.70;;;;;;;;;;5037208;28;20427;-77
2022/03/28 00:15:16;;;;;;;42.05;7.78;;;;;;;;;;5024734;28;20109;-78
2022/03/28 00:17:42;;;;;;;48.20;7.90;;;;;;;;;;5027544;28;20036;-78
2022/03/28 00:20:13;;;;;;;52.63;9.32;;;;;;;;;;5028123;28;20025;-77
2022/03/28 00:22:40;;;;;;;44.47;7.57;;;;;;;;;;5026115;28;20044;-77
2022/03/28 00:25:07;;;;;;;47.53;8.48;;;;;;;;;;5025903;28;20112;-77
2022/03/28 00:27:34;;;;;;;42.83;10.30;;;;;;;;;;5026628;28;20033;-77
2022/03/28 00:30:00;;;;;;;52.08;8.63;;;;;;;;;;5025407;28;20179;-77
2022/03/28 00:32:26;;;;;;;45.10;7.82;;;;;;;;;;5025933;28;20034;-78
2022/03/28 00:34:55;;;;;;;55.10;9.45;;;;;;;;;;5025173;28;20049;-78
2022/03/28 00:37:21;;;;;;;42.38;8.45;;;;;;;;;;5026600;28;20033;-78
2022/03/28 00:39:47;;;;;;;41.92;7.55;;;;;;;;;;5025348;28;20136;-78
2022/03/28 00:42:13;;;;;;;47.35;8.23;;;;;;;;;;5025463;28;20083;-79
2022/03/28 00:44:39;;;;;;;37.47;8.07;;;;;;;;;;5024313;28;20109;-78
2022/03/28 00:47:05;;;;;;;46.03;9.10;;;;;;;;;;5024826;28;20503;-78
2022/03/28 00:49:32;;;;;;;35.47;7.75;;;;;;;;;;5026055;28;20057;-79
2022/03/28 00:51:58;;;;;;;43.10;8.73;;;;;;;;;;5023098;28;20037;-78
2022/03/28 00:54:24;;;;;;;51.70;9.65;;;;;;;;;;5023557;28;20037;-79
2022/03/28 00:56:50;;;;;;;54.03;8.23;;;;;;;;;;5022911;28;20033;-76
2022/03/28 00:59:17;;;;;;;43.15;8.80;;;;;;;;;;5003749;28;20124;-78
2022/03/28 01:01:46;;;;;;;41.03;9.23;;;;;;;;;;5025657;28;20125;-77
2022/03/28 01:04:12;;;;;;;47.50;9.02;;;;;;;;;;5024241;28;20033;-77
2022/03/28 01:06:39;;;;;;;48.17;10.30;;;;;;;;;;5029921;28;20060;-77
2022/03/28 01:09:05;;;;;;;50.90;8.90;;;;;;;;;;5025689;28;20034;-78
2022/03/28 01:11:33;;;;;;;47.17;10.93;;;;;;;;;;5024632;28;20417;-78
2022/03/28 01:13:59;;;;;;;47.10;8.25;;;;;;;;;;5027648;28;20029;-78
2022/03/28 01:16:28;;;;;;;53.75;9.02;;;;;;;;;;5025950;28;20033;-79
2022/03/28 01:18:54;;;;;;;48.22;9.75;;;;;;;;;;5028198;28;20032;-78
2022/03/28 01:21:20;;;;;;;37.55;9.20;;;;;;;;;;5008664;28;20025;-78
2022/03/28 01:23:46;;;;;;;56.15;10.75;;;;;;;;;;5028020;28;20092;-79
2022/03/28 01:26:14;;;;;;;43.65;8.75;;;;;;;;;;5029955;28;20116;-77
2022/03/28 01:28:40;;;;;;;70.57;11.63;;;;;;;;;;5022744;28;20067;-77
2022/03/28 01:31:07;;;;;;;55.60;9.55;;;;;;;;;;5028691;28;20033;-78
2022/03/28 01:33:35;;;;;;;48.00;9.65;;;;;;;;;;5025359;28;20053;-78
2022/03/28 01:36:01;;;;;;;52.75;10.43;;;;;;;;;;5045100;28;20033;-79
2022/03/28 01:38:27;;;;;;;57.28;10.02;;;;;;;;;;5029212;28;20100;-78
2022/03/28 01:40:53;;;;;;;42.63;9.82;;;;;;;;;;5028713;28;20124;-77
2022/03/28 01:43:20;;;;;;;46.13;9.88;;;;;;;;;;5028201;28;20021;-77
2022/03/28 01:45:46;;;;;;;64.50;11.70;;;;;;;;;;5023066;28;20045;-78
2022/03/28 01:48:13;;;;;;;50.38;11.20;;;;;;;;;;5024002;28;20129;-78
2022/03/28 01:50:39;;;;;;;53.80;10.13;;;;;;;;;;5027394;28;20057;-77
2022/03/28 01:53:06;;;;;;;65.60;11.52;;;;;;;;;;5027827;28;20065;-78
2022/03/28 01:55:32;;;;;;;53.88;10.32;;;;;;;;;;5030864;28;20029;-78
2022/03/28 01:57:58;;;;;;;51.10;11.10;;;;;;;;;;5027928;28;20029;-80
2022/03/28 02:00:25;;;;;;;46.83;11.27;;;;;;;;;;5030501;28;20124;-79
2022/03/28 02:02:53;;;;;;;59.58;13.88;;;;;;;;;;5028676;28;20497;-78
2022/03/28 02:05:19;;;;;;;62.78;11.13;;;;;;;;;;5031174;28;20025;-77
2022/03/28 02:07:47;;;;;;;50.22;10.98;;;;;;;;;;5030600;28;20033;-77
2022/03/28 02:10:15;;;;;;;54.70;11.88;;;;;;;;;;5027867;28;20044;-78
2022/03/28 02:12:41;;;;;;;55.72;13.05;;;;;;;;;;5027473;28;20029;-79
2022/03/28 02:15:10;;;;;;;57.38;12.13;;;;;;;;;;5024570;28;20562;-78
2022/03/28 02:17:36;;;;;;;47.70;13.18;;;;;;;;;;5027441;28;20053;-80
2022/03/28 02:20:05;;;;;;;60.53;12.68;;;;;;;;;;5029014;28;20026;-78
2022/03/28 02:22:32;;;;;;;57.25;14.52;;;;;;;;;;5029093;28;20032;-78
2022/03/28 02:24:58;;;;;;;50.78;12.13;;;;;;;;;;5028352;28;20029;-77
2022/03/28 02:27:24;;;;;;;62.80;12.48;;;;;;;;;;5027824;28;20084;-77
2022/03/28 02:29:50;;;;;;;54.75;13.10;;;;;;;;;;5027508;28;20047;-77
2022/03/28 02:32:16;;;;;;;54.97;13.02;;;;;;;;;;5027978;28;20055;-76
2022/03/28 02:34:42;;;;;;;58.33;12.40;;;;;;;;;;5028511;28;20091;-77
2022/03/28 02:37:08;;;;;;;50.65;13.77;;;;;;;;;;5027456;28;20029;-77
2022/03/28 02:39:34;;;;;;;53.92;15.38;;;;;;;;;;5028509;28;20021;-78
2022/03/28 02:42:00;;;;;;;54.67;13.68;;;;;;;;;;5027396;28;20104;-78
2022/03/28 02:44:26;;;;;;;57.65;14.80;;;;;;;;;;5028638;28;20014;-78
2022/03/28 02:46:52;;;;;;;58.30;14.30;;;;;;;;;;5028969;28;20100;-78
2022/03/28 02:49:19;;;;;;;71.38;16.35;;;;;;;;;;5027927;28;20120;-77
2022/03/28 02:51:45;;;;;;;60.67;16.48;;;;;;;;;;5026119;28;20041;-78
2022/03/28 02:54:11;;;;;;;59.90;16.05;;;;;;;;;;5027540;28;20030;-78
2022/03/28 02:56:37;;;;;;;63.13;15.35;;;;;;;;;;5028475;28;20033;-78
2022/03/28 02:59:04;;;;;;;71.03;16.70;;;;;;;;;;5025371;28;20029;-78
2022/03/28 03:01:30;;;;;;;58.50;16.58;;;;;;;;;;5026762;28;20483;-77
2022/03/28 03:03:56;;;;;;;56.97;16.67;;;;;;;;;;5025522;28;20373;-78
2022/03/28 03:06:22;;;;;;;62.50;18.35;;;;;;;;;;5029390;28;20102;-78
2022/03/28 03:08:50;;;;;;;60.38;17.30;;;;;;;;;;5026723;28;20114;-78
2022/03/28 03:11:16;;;;;;;65.30;19.00;;;;;;;;;;5025483;28;20196;-78
2022/03/28 03:13:43;;;;;;;55.05;16.85;;;;;;;;;;5026435;28;20060;-78
2022/03/28 03:16:09;;;;;;;57.22;18.65;;;;;;;;;;5029456;28;20037;-78
2022/03/28 03:18:35;;;;;;;66.70;17.80;;;;;;;;;;5026326;28;20037;-77
2022/03/28 03:21:01;;;;;;;61.35;19.05;;;;;;;;;;5024232;28;20026;-76
2022/03/28 03:23:27;;;;;;;52.20;18.73;;;;;;;;;;5026258;28;20112;-77
2022/03/28 03:25:54;;;;;;;62.00;20.70;;;;;;;;;;5010991;28;20121;-77
2022/03/28 03:28:20;;;;;;;63.92;19.02;;;;;;;;;;5027513;28;20159;-76
2022/03/28 03:30:46;;;;;;;66.88;20.02;;;;;;;;;;5027830;28;20044;-77
2022/03/28 03:33:13;;;;;;;69.85;20.50;;;;;;;;;;5026667;28;20086;-77
2022/03/28 03:35:40;;;;;;;66.57;20.13;;;;;;;;;;5027090;28;20033;-79
2022/03/28 03:38:06;;;;;;;67.32;19.95;;;;;;;;;;5027012;28;20049;-78
2022/03/28 03:40:32;;;;;;;81.55;20.85;;;;;;;;;;5027291;28;20123;-77
2022/03/28 03:42:58;;;;;;;61.38;18.98;;;;;;;;;;5027793;28;20111;-78
2022/03/28 03:45:24;;;;;;;61.40;20.40;;;;;;;;;;5027589;28;20029;-76
2022/03/28 03:47:51;;;;;;;65.50;20.95;;;;;;;;;;5028407;28;20449;-77
2022/03/28 03:50:17;;;;;;;64.20;20.55;;;;;;;;;;5027770;28;20483;-77
2022/03/28 03:52:43;;;;;;;68.82;21.02;;;;;;;;;;5026825;28;20033;-77
2022/03/28 03:55:09;;;;;;;66.80;19.70;;;;;;;;;;5028319;28;20017;-78
2022/03/28 03:57:36;;;;;;;67.88;21.00;;;;;;;;;;5028317;28;20025;-78
2022/03/28 04:00:03;;;;;;;69.97;21.15;;;;;;;;;;5027760;28;20029;-78
2022/03/28 04:02:29;;;;;;;62.70;21.55;;;;;;;;;;5026309;28;20031;-77
2022/03/28 04:04:55;;;;;;;61.72;21.30;;;;;;;;;;5025687;28;20259;-78
2022/03/28 04:07:21;;;;;;;70.65;21.52;;;;;;;;;;5025505;28;20057;-78
2022/03/28 04:09:47;;;;;;;61.17;20.80;;;;;;;;;;5028060;28;20567;-77
2022/03/28 04:12:14;;;;;;;64.93;21.90;;;;;;;;;;5024817;28;20071;-78
2022/03/28 04:14:40;;;;;;;71.80;22.25;;;;;;;;;;5024622;28;20049;-79
2022/03/28 04:17:06;;;;;;;62.25;22.23;;;;;;;;;;5025320;28;20037;-78
2022/03/28 04:19:32;;;;;;;63.22;23.27;;;;;;;;;;5028291;28;20108;-77
2022/03/28 04:21:58;;;;;;;83.05;24.45;;;;;;;;;;5026194;28;20546;-77
2022/03/28 04:24:25;;;;;;;86.47;26.65;;;;;;;;;;5024282;28;20022;-78
2022/03/28 04:26:51;;;;;;;75.38;24.42;;;;;;;;;;5026341;28;20506;-78
2022/03/28 04:29:17;;;;;;;159.50;24.83;;;;;;;;;;5022182;28;20083;-78
2022/03/28 04:31:43;;;;;;;104.13;24.02;;;;;;;;;;5026155;28;20030;-78
2022/03/28 04:34:12;;;;;;;134.57;25.73;;;;;;;;;;5027253;28;20345;-79
2022/03/28 04:36:38;;;;;;;201.00;26.20;;;;;;;;;;5025954;28;20039;-77
2022/03/28 04:39:05;;;;;;;163.38;26.08;;;;;;;;;;5023667;28;20022;-78
2022/03/28 04:41:32;;;;;;;234.77;28.73;;;;;;;;;;5030122;28;20049;-77
2022/03/28 04:43:58;;;;;;;133.35;25.33;;;;;;;;;;5028917;28;20029;-77
2022/03/28 04:46:24;;;;;;;195.85;29.77;;;;;;;;;;5030107;28;20029;-77
2022/03/28 04:48:50;;;;;;;182.15;30.08;;;;;;;;;;5029830;28;20491;-78
2022/03/28 04:51:17;;;;;;;207.05;29.65;;;;;;;;;;5028972;28;20707;-77
2022/03/28 04:53:43;;;;;;;154.07;27.15;;;;;;;;;;5029699;28;20037;-76
2022/03/28 04:56:09;;;;;;;205.45;32.15;;;;;;;;;;5029360;28;20502;-77
2022/03/28 04:58:35;;;;;;;163.38;28.98;;;;;;;;;;5028891;28;20047;-77
2022/03/28 05:01:01;;;;;;;143.70;30.27;;;;;;;;;;5027367;28;20466;-77
2022/03/28 05:03:27;;;;;;;151.50;29.50;;;;;;;;;;5028318;28;20030;-80
2022/03/28 05:05:53;;;;;;;143.77;29.95;;;;;;;;;;5031091;28;21583;-80
2022/03/28 05:08:19;;;;;;;158.27;31.88;;;;;;;;;;5027819;28;20506;-76
2022/03/28 05:10:45;;;;;;;172.48;28.60;;;;;;;;;;5028494;28;20025;-75
2022/03/28 05:13:11;;;;;;;222.38;29.48;;;;;;;;;;5027865;28;20117;-75
2022/03/28 05:15:37;;;;;;;157.13;30.25;;;;;;;;;;5011204;28;20039;-74
2022/03/28 05:18:03;;;;;;;159.98;30.60;;;;;;;;;;5027697;28;20120;-75
2022/03/28 05:20:29;;;;;;;270.88;33.10;;;;;;;;;;5027585;28;20037;-75
2022/03/28 05:22:55;;;;;;;172.80;28.52;;;;;;;;;;5011168;28;20526;-76
2022/03/28 05:25:21;;;;;;;244.18;33.50;;;;;;;;;;5028967;28;20057;-75
2022/03/28 05:27:48;;;;;;;188.57;30.50;;;;;;;;;;5030021;28;20240;-74
2022/03/28 05:30:15;;;;;;;163.50;28.42;;;;;;;;;;5027515;28;20072;-74
2022/03/28 05:32:42;;;;;;;181.10;30.80;;;;;;;;;;5027831;28;20089;-75
2022/03/28 05:35:09;;;;;;;155.10;29.65;;;;;;;;;;5025935;28;20454;-73
2022/03/28 05:37:35;;;;;;;179.20;28.67;;;;;;;;;;5029065;28;20039;-75
2022/03/28 05:40:02;;;;;;;159.40;31.58;;;;;;;;;;5029366;28;20056;-75
2022/03/28 05:42:28;;;;;;;161.75;27.15;;;;;;;;;;5027273;28;20129;-75
2022/03/28 05:44:55;;;;;;;216.55;27.80;;;;;;;;;;5027754;28;20040;-74
2022/03/28 05:47:21;;;;;;;192.63;28.38;;;;;;;;;;5025260;28;20513;-75
2022/03/28 05:49:47;;;;;;;211.05;29.95;;;;;;;;;;5029215;28;20057;-76
2022/03/28 05:52:13;;;;;;;242.23;31.70;;;;;;;;;;5027056;28;20128;-75
2022/03/28 05:54:39;;;;;;;168.82;28.23;;;;;;;;;;5025370;28;20498;-74
2022/03/28 05:57:05;;;;;;;200.35;28.20;;;;;;;;;;5028598;28;20026;-74
2022/03/28 05:59:32;;;;;;;184.65;27.27;;;;;;;;;;5027047;28;20247;-75
2022/03/28 06:01:58;;;;;;;147.32;26.55;;;;;;;;;;5026735;28;20510;-75
2022/03/28 06:04:24;;;;;;;187.38;25.92;;;;;;;;;;5027107;28;20079;-74
2022/03/28 06:06:50;;;;;;;214.20;27.38;;;;;;;;;;5026701;28;20038;-73
2022/03/28 06:09:16;;;;;;;163.05;26.80;;;;;;;;;;5023346;28;20037;-76
2022/03/28 06:11:42;;;;;;;238.93;28.02;;;;;;;;;;5023207;28;20060;-76
2022/03/28 06:14:11;;;;;;;197.48;27.17;;;;;;;;;;5028339;28;20387;-75
2022/03/28 06:16:37;;;;;;;294.55;29.45;;;;;;;;;;5018562;28;20033;-74
2022/03/28 06:19:03;;;;;;;201.13;26.63;;;;;;;;;;5029116;28;20111;-74
2022/03/28 06:21:32;;;;;;;231.57;29.15;;;;;;;;;;5028040;28;20034;-75
2022/03/28 06:23:59;;;;;;;235.63;30.45;;;;;;;;;;5027690;28;20127;-75
2022/03/28 06:26:26;;;;;;;142.02;23.80;;;;;;;;;;5028500;28;20060;-74
2022/03/28 06:28:52;;;;;;;225.02;27.42;;;;;;;;;;5025034;28;20032;-74
2022/03/28 06:31:18;;;;;;;165.82;24.02;;;;;;;;;;5024265;28;20068;-74
2022/03/28 06:33:44;;;;;;;230.40;25.20;;;;;;;;;;5027069;28;20128;-74
2022/03/28 06:36:11;;;;;;;309.00;27.27;;;;;;;;;;5028527;28;20060;-74
2022/03/28 06:38:37;;;;;;;121.18;22.67;;;;;;;;;;5027776;28;20113;-74
2022/03/28 06:41:03;;;;;;;135.82;22.83;;;;;;;;;;5027568;28;20064;-75
2022/03/28 06:43:29;;;;;;;182.48;23.67;;;;;;;;;;5052843;28;20167;-75
2022/03/28 06:45:55;;;;;;;221.88;23.63;;;;;;;;;;5027700;28;20534;-75
2022/03/28 06:48:21;;;;;;;148.27;22.95;;;;;;;;;;5029188;28;20053;-75
2022/03/28 06:50:48;;;;;;;137.48;29.17;;;;;;;;;;5029560;28;20124;-75
2022/03/28 06:53:14;;;;;;;158.90;21.58;;;;;;;;;;5028598;28;20057;-75
2022/03/28 06:55:40;;;;;;;95.40;19.88;;;;;;;;;;5029470;28;20076;-75
2022/03/28 06:58:06;;;;;;;106.70;22.27;;;;;;;;;;5027694;28;20028;-75
2022/03/28 07:00:33;;;;;;;99.28;21.05;;;;;;;;;;5027411;28;20045;-75
2022/03/28 07:02:59;;;;;;;91.60;20.63;;;;;;;;;;5027043;28;20026;-74
2022/03/28 07:05:26;;;;;;;103.45;20.48;;;;;;;;;;5027041;28;20459;-74
2022/03/28 07:07:53;;;;;;;100.53;19.17;;;;;;;;;;5027269;28;20048;-75
2022/03/28 07:10:21;;;;;;;82.32;18.20;;;;;;;;;;5028563;28;20032;-75
2022/03/28 07:12:47;;;;;;;114.78;19.27;;;;;;;;;;5028798;28;20382;-75
2022/03/28 07:15:14;;;;;;;113.43;19.23;;;;;;;;;;5028683;28;20041;-75
2022/03/28 07:17:54;;;;;;;116.85;18.67;;;;;;;;;;5026276;28;20355;-75
2022/03/28 07:20:24;;;;;;;63.42;17.08;;;;;;;;;;5027507;28;20095;-75
2022/03/28 07:22:50;;;;;;;53.45;17.30;;;;;;;;;;5025618;28;20044;-75
2022/03/28 07:25:16;;;;;;;94.53;18.45;;;;;;;;;;5028783;28;20029;-74
2022/03/28 07:27:42;;;;;;;116.30;18.52;;;;;;;;;;5026181;28;20484;-75
2022/03/28 07:30:09;;;;;;;51.35;16.10;;;;;;;;;;5027255;28;20224;-76
2022/03/28 07:32:35;;;;;;;186.38;17.73;;;;;;;;;;5027128;28;20112;-76
2022/03/28 07:35:02;;;;;;;194.75;18.92;;;;;;;;;;5027853;28;20467;-74
2022/03/28 07:37:28;;;;;;;60.90;15.10;;;;;;;;;;5026317;28;20494;-74
2022/03/28 07:39:55;;;;;;;81.60;15.90;;;;;;;;;;5026651;28;20021;-75
2022/03/28 07:42:21;;;;;;;69.70;16.33;;;;;;;;;;5027207;28;20037;-75
2022/03/28 07:44:48;;;;;;;64.25;15.73;;;;;;;;;;5028901;28;20175;-75
2022/03/28 07:47:14;;;;;;;101.78;16.05;;;;;;;;;;5026858;28;20048;-74
2022/03/28 07:49:40;;;;;;;106.45;15.88;;;;;;;;;;5025907;28;20040;-74
2022/03/28 07:52:08;;;;;;;64.55;14.93;;;;;;;;;;5027282;28;20033;-74
2022/03/28 07:54:36;;;;;;;36.55;15.73;;;;;;;;;;5028060;28;20076;-75
2022/03/28 07:57:02;;;;;;;40.38;14.13;;;;;;;;;;5026592;28;20526;-75
2022/03/28 07:59:29;;;;;;;97.03;14.93;;;;;;;;;;5028102;28;20091;-75
2022/03/28 08:01:55;;;;;;;62.90;14.15;;;;;;;;;;5026601;28;20032;-75
2022/03/28 08:04:21;;;;;;;85.07;14.35;;;;;;;;;;5024969;28;20029;-74
2022/03/28 08:06:47;;;;;;;55.25;12.93;;;;;;;;;;5027109;28;20494;-74
2022/03/28 08:09:14;;;;;;;61.83;14.43;;;;;;;;;;5005196;28;20053;-74
2022/03/28 08:11:42;;;;;;;56.10;15.70;;;;;;;;;;5040176;28;20495;-74
2022/03/28 08:14:08;;;;;;;66.25;14.10;;;;;;;;;;5025611;28;20053;-75
2022/03/28 08:16:34;;;;;;;53.58;13.82;;;;;;;;;;5026768;28;20059;-76
2022/03/28 08:19:00;;;;;;;37.45;13.63;;;;;;;;;;5026354;28;20483;-75
2022/03/28 08:21:27;;;;;;;49.10;13.82;;;;;;;;;;5028106;28;20063;-76
2022/03/28 08:23:53;;;;;;;38.60;13.40;;;;;;;;;;5026991;28;20037;-75
2022/03/28 08:26:20;;;;;;;46.55;13.82;;;;;;;;;;5027220;28;20037;-76
2022/03/28 08:28:46;;;;;;;34.38;14.48;;;;;;;;;;5026820;28;20044;-76
2022/03/28 08:31:13;;;;;;;24.77;12.25;;;;;;;;;;5026227;28;20474;-75
2022/03/28 08:33:41;;;;;;;41.20;13.15;;;;;;;;;;5026909;28;20222;-75
2022/03/28 08:36:08;;;;;;;27.67;13.55;;;;;;;;;;5026929;28;20049;-74
2022/03/28 08:38:35;;;;;;;34.55;11.88;;;;;;;;;;5027492;28;20041;-77
2022/03/28 08:41:01;;;;;;;37.00;11.68;;;;;;;;;;5024756;28;20030;-75
2022/03/28 08:43:28;;;;;;;26.00;11.90;;;;;;;;;;5024354;28;20045;-75
2022/03/28 08:45:54;;;;;;;30.83;12.40;;;;;;;;;;5022861;28;20545;-75
2022/03/28 08:48:20;;;;;;;34.28;12.05;;;;;;;;;;5025328;28;20124;-76
2022/03/28 08:50:49;;;;;;;35.25;11.18;;;;;;;;;;5025501;28;20045;-75
2022/03/28 08:53:15;;;;;;;49.65;12.02;;;;;;;;;;5026660;28;20068;-76
2022/03/28 08:55:42;;;;;;;47.55;11.63;;;;;;;;;;5026566;28;20296;-75
2022/03/28 08:58:09;;;;;;;26.67;11.55;;;;;;;;;;5026498;28;20040;-75
2022/03/28 09:00:35;;;;;;;19.35;11.32;;;;;;;;;;5009278;28;20037;-75
2022/03/28 09:03:01;;;;;;;38.72;11.48;;;;;;;;;;5026625;28;20106;-74
2022/03/28 09:05:38;;;;;;;22.45;10.07;;;;;;;;;;5026486;28;20057;-76
2022/03/28 09:08:05;;;;;;;21.15;10.30;;;;;;;;;;5025105;28;20021;-74
2022/03/28 09:10:34;;;;;;;18.52;10.10;;;;;;;;;;5026153;28;20032;-76
2022/03/28 09:13:05;;;;;;;16.92;9.80;;;;;;;;;;5025380;28;20034;-77
2022/03/28 09:15:42;;;;;;;19.88;10.18;;;;;;;;;;5024186;28;20033;-76
2022/03/28 09:18:08;;;;;;;17.05;10.55;;;;;;;;;;5021064;28;20116;-76
2022/03/28 09:20:36;;;;;;;15.98;10.30;;;;;;;;;;5026275;28;20065;-74
2022/03/28 09:23:21;;;;;;;24.75;10.60;;;;;;;;;;5026897;28;20094;-76
2022/03/28 09:25:51;;;;;;;21.35;10.18;;;;;;;;;;5026205;28;20033;-75
2022/03/28 09:28:23;;;;;;;17.90;10.40;;;;;;;;;;5024762;28;20034;-76
2022/03/28 09:30:50;;;;;;;22.25;10.05;;;;;;;;;;5021943;28;20041;-77
2022/03/28 09:33:18;;;;;;;22.60;10.77;;;;;;;;;;5030691;28;20037;-75
2022/03/28 09:35:48;;;;;;;17.77;9.77;;;;;;;;;;5028606;28;20037;-75
2022/03/28 09:38:18;;;;;;;19.00;9.15;;;;;;;;;;5030958;28;20026;-75
2022/03/28 09:40:45;;;;;;;20.52;9.18;;;;;;;;;;5030287;28;20403;-76
2022/03/28 09:43:19;;;;;;;17.60;9.20;;;;;;;;;;5028778;28;20125;-76
2022/03/28 09:45:55;;;;;;;19.25;9.30;;;;;;;;;;5028724;28;20057;-75
2022/03/28 09:48:24;;;;;;;16.38;8.90;;;;;;;;;;5025178;28;20056;-76
2022/03/28 09:51:01;;;;;;;31.15;10.15;;;;;;;;;;5031189;28;20163;-76
2022/03/28 09:53:37;;;;;;;17.30;9.13;;;;;;;;;;5027673;28;20087;-75
2022/03/28 09:56:05;;;;;;;18.25;9.43;;;;;;;;;;5029966;28;20575;-76
2022/03/28 09:58:47;;;;;;;19.95;9.13;;;;;;;;;;5029251;28;20487;-76
2022/03/28 10:01:21;;;;;;;22.58;10.85;;;;;;;;;;5026592;28;20120;-75
2022/03/28 10:03:54;;;;;;;19.35;9.95;;;;;;;;;;5029404;28;20059;-76
2022/03/28 10:06:20;;;;;;;23.27;9.80;;;;;;;;;;5029334;28;20498;-77
2022/03/28 10:08:47;;;;;;;14.95;8.35;;;;;;;;;;5029350;28;20124;-77
2022/03/28 10:11:14;;;;;;;19.75;8.90;;;;;;;;;;5028760;28;20493;-76
2022/03/28 10:13:40;;;;;;;17.27;9.30;;;;;;;;;;5029191;28;20059;-76
2022/03/28 10:16:07;;;;;;;19.75;8.65;;;;;;;;;;5028040;28;20032;-77
2022/03/28 10:18:37;;;;;;;30.10;8.68;;;;;;;;;;5029255;28;20117;-76
2022/03/28 10:21:24;;;;;;;19.50;8.38;;;;;;;;;;5029036;28;20101;-76
2022/03/28 10:23:59;;;;;;;20.35;9.15;;;;;;;;;;5029394;28;20034;-76
2022/03/28 10:26:28;;;;;;;23.10;8.55;;;;;;;;;;5028117;28;20100;-74
2022/03/28 10:29:04;;;;;;;18.25;8.73;;;;;;;;;;5027673;28;20030;-74
2022/03/28 10:31:32;;;;;;;20.67;8.65;;;;;;;;;;5029058;28;20415;-76
2022/03/28 10:33:58;;;;;;;18.65;8.90;;;;;;;;;;5030441;28;20095;-75
2022/03/28 10:36:27;;;;;;;13.75;8.27;;;;;;;;;;5027676;28;20102;-75
2022/03/28 10:38:57;;;;;;;14.38;8.18;;;;;;;;;;5027053;28;20029;-75
2022/03/28 10:41:25;;;;;;;12.75;8.45;;;;;;;;;;5028615;28;20136;-75
2022/03/28 10:43:51;;;;;;;16.77;9.75;;;;;;;;;;5029329;28;20026;-74
2022/03/28 10:46:19;;;;;;;14.98;8.75;;;;;;;;;;5028969;28;20076;-75
2022/03/28 10:48:55;;;;;;;15.70;8.68;;;;;;;;;;5028425;28;20450;-76
2022/03/28 10:51:24;;;;;;;18.50;9.38;;;;;;;;;;5031084;28;20109;-75
2022/03/28 10:53:54;;;;;;;16.15;8.80;;;;;;;;;;5027438;28;20121;-75
2022/03/28 10:56:33;;;;;;;18.98;8.95;;;;;;;;;;5028083;28;20556;-76
2022/03/28 10:59:01;;;;;;;11.90;7.65;;;;;;;;;;5028946;28;20113;-75
2022/03/28 11:01:27;;;;;;;14.32;8.63;;;;;;;;;;5029721;28;20026;-77
2022/03/28 11:04:00;;;;;;;17.35;8.88;;;;;;;;;;5028380;28;20033;-77
2022/03/28 11:06:45;;;;;;;36.88;10.63;;;;;;;;;;5028263;28;20582;-77
2022/03/28 11:09:12;;;;;;;16.08;8.75;;;;;;;;;;5028369;28;20526;-75
2022/03/28 11:11:56;;;;;;;17.55;9.02;;;;;;;;;;5029648;28;20072;-74
2022/03/28 11:14:38;;;;;;;15.30;8.25;;;;;;;;;;5015513;28;20537;-76
2022/03/28 11:17:34;;;;;;;14.32;8.23;;;;;;;;;;5028973;28;20233;-75
2022/03/28 11:20:14;;;;;;;15.05;8.20;;;;;;;;;;5013212;28;20037;-75
2022/03/28 11:22:44;;;;;;;15.38;8.65;;;;;;;;;;5024919;28;20118;-76
2022/03/28 11:25:29;;;;;;;156.82;18.48;;;;;;;;;;5027784;28;20029;-75
2022/03/28 11:28:02;;;;;;;21.83;9.32;;;;;;;;;;5028696;28;20095;-77
2022/03/28 11:30:29;;;;;;;18.92;8.45;;;;;;;;;;5029349;28;20043;-73
2022/03/28 11:32:55;;;;;;;17.05;9.52;;;;;;;;;;5025839;28;20044;-75
2022/03/28 11:35:21;;;;;;;23.83;10.88;;;;;;;;;;5026573;28;20087;-75
2022/03/28 11:37:49;;;;;;;19.95;9.15;;;;;;;;;;5028101;28;20061;-76
2022/03/28 11:40:15;;;;;;;19.70;9.63;;;;;;;;;;5023481;28;20463;-76
2022/03/28 11:42:45;;;;;;;19.65;9.70;;;;;;;;;;5026671;28;20041;-75
2022/03/28 11:45:13;;;;;;;18.60;9.65;;;;;;;;;;5015812;28;20045;-76
2022/03/28 11:47:41;;;;;;;19.13;9.10;;;;;;;;;;5029327;28;20042;-75
2022/03/28 11:50:09;;;;;;;21.77;9.18;;;;;;;;;;5027397;28;20031;-75
2022/03/28 11:52:35;;;;;;;16.85;8.63;;;;;;;;;;5021260;28;20030;-76
2022/03/28 11:55:02;;;;;;;12.98;7.53;;;;;;;;;;5020937;28;20091;-73
2022/03/28 12:00:19;;;;;;;17.45;8.13;;;;;;;;;;5028892;28;20407;-75
2022/03/28 12:02:54;;;;;;;14.80;8.05;;;;;;;;;;5027873;28;20021;-76
2022/03/28 12:05:29;;;;;;;13.32;7.65;;;;;;;;;;5028758;28;20506;-76
2022/03/28 12:07:55;;;;;;;16.40;7.82;;;;;;;;;;5028728;28;20475;-76
2022/03/28 12:10:29;;;;;;;14.23;8.02;;;;;;;;;;5027181;28;20021;-75
2022/03/28 12:12:56;;;;;;;14.07;8.18;;;;;;;;;;5027263;28;20030;-74
2022/03/28 12:15:26;;;;;;;19.77;8.75;;;;;;;;;;5026984;28;20034;-73
2022/03/28 12:17:57;;;;;;;21.53;8.30;;;;;;;;;;5027147;28;20036;-74
2022/03/28 12:20:23;;;;;;;;;;;;;;;;;;5025148;28;20367;-77
2022/03/28 12:22:50;;;;;;;16.27;8.32;;;;;;;;;;5026547;28;19920;-74
2022/03/28 12:25:27;;;;;;;18.52;8.57;;;;;;;;;;5028271;28;20083;-76
2022/03/28 12:28:03;;;;;;;16.67;8.35;;;;;;;;;;5027096;28;20210;-75
2022/03/28 12:30:59;;;;;;;16.27;8.55;;;;;;;;;;5021610;28;20033;-75
2022/03/28 12:33:26;;;;;;;17.42;8.70;;;;;;;;;;5012778;28;20076;-77
2022/03/28 12:35:54;;;;;;;15.70;8.80;;;;;;;;;;5028144;28;20161;-74
2022/03/28 12:38:21;;;;;;;18.42;8.95;;;;;;;;;;5028512;28;20033;-78
2022/03/28 12:40:51;;;;;;;16.38;7.75;;;;;;;;;;5021285;28;20231;-75
2022/03/28 12:43:17;;;;;;;20.95;8.40;;;;;;;;;;5027840;28;20056;-75
2022/03/28 12:45:43;;;;;;;17.73;8.43;;;;;;;;;;5027509;28;20053;-74
2022/03/28 12:48:11;;;;;;;18.05;8.68;;;;;;;;;;5025767;28;20103;-75
2022/03/28 12:50:50;;;;;;;18.45;9.32;;;;;;;;;;5027786;28;20033;-75
2022/03/28 12:53:17;;;;;;;17.65;8.60;;;;;;;;;;5027637;28;20037;-76
2022/03/28 12:55:44;;;;;;;19.83;9.40;;;;;;;;;;5027883;28;20033;-76
2022/03/28 12:58:14;;;;;;;17.25;9.05;;;;;;;;;;5027890;28;20091;-76
2022/03/28 13:00:40;;;;;;;19.00;9.43;;;;;;;;;;5027076;28;20402;-75
2022/03/28 13:03:07;;;;;;;22.83;10.38;;;;;;;;;;5031031;28;20083;-75
2022/03/28 13:05:34;;;;;;;23.35;11.20;;;;;;;;;;5031295;28;20033;-76
2022/03/28 13:08:07;;;;;;;26.60;10.82;;;;;;;;;;5027800;28;20036;-75
2022/03/28 13:10:35;;;;;;;33.05;11.57;;;;;;;;;;5029528;28;20087;-74
2022/03/28 13:13:01;;;;;;;28.85;13.48;;;;;;;;;;5030221;28;20029;-75
2022/03/28 13:15:31;;;;;;;23.25;11.15;;;;;;;;;;5028548;28;20041;-77
2022/03/28 13:18:06;;;;;;;26.60;11.07;;;;;;;;;;5029768;28;20025;-76
2022/03/28 13:20:35;;;;;;;25.35;12.23;;;;;;;;;;5029455;28;20076;-76
2022/03/28 13:23:01;;;;;;;24.88;11.38;;;;;;;;;;5028162;28;20029;-73
2022/03/28 13:25:28;;;;;;;25.98;11.98;;;;;;;;;;5029634;28;20039;-75
2022/03/28 13:28:01;;;;;;;30.88;12.02;;;;;;;;;;5029176;28;20033;-75
2022/03/28 13:30:29;;;;;;;26.15;11.68;;;;;;;;;;5029913;28;20029;-71
2022/03/28 13:32:56;;;;;;;28.73;11.00;;;;;;;;;;5026684;28;20025;-72
2022/03/28 13:35:22;;;;;;;19.90;9.93;;;;;;;;;;5026366;28;20029;-71
2022/03/28 13:37:58;;;;;;;21.15;9.13;;;;;;;;;;5029846;28;20037;-73
2022/03/28 13:40:25;;;;;;;18.73;9.25;;;;;;;;;;5028539;28;20021;-73
2022/03/28 13:42:51;;;;;;;22.83;9.30;;;;;;;;;;5027284;28;20071;-72
2022/03/28 13:45:18;;;;;;;19.50;8.85;;;;;;;;;;5027785;28;20156;-71
2022/03/28 13:47:47;;;;;;;24.05;9.35;;;;;;;;;;5029594;28;20030;-71
2022/03/28 13:50:13;;;;;;;25.02;9.15;;;;;;;;;;5030059;28;20025;-71
2022/03/28 13:52:39;;;;;;;17.05;9.02;;;;;;;;;;5029120;28;20022;-70
2022/03/28 13:55:06;;;;;;;21.80;9.90;;;;;;;;;;5028563;28;20035;-72
2022/03/28 13:57:32;;;;;;;21.38;9.52;;;;;;;;;;5026051;28;20038;-73
2022/03/28 13:59:58;;;;;;;17.33;8.88;;;;;;;;;;5026690;28;20495;-72
2022/03/28 14:02:24;;;;;;;23.80;10.20;;;;;;;;;;5027110;28;20112;-71
2022/03/28 14:04:51;;;;;;;26.70;10.13;;;;;;;;;;5029250;28;20045;-73
2022/03/28 14:07:17;;;;;;;24.17;10.25;;;;;;;;;;5028612;28;20116;-73
2022/03/28 14:09:43;;;;;;;19.60;10.02;;;;;;;;;;5029961;28;20038;-73
2022/03/28 14:12:09;;;;;;;20.80;9.85;;;;;;;;;;5029645;28;20041;-72
2022/03/28 14:14:35;;;;;;;23.58;10.27;;;;;;;;;;5030663;28;20490;-72
2022/03/28 14:17:02;;;;;;;20.13;10.25;;;;;;;;;;5029120;28;20399;-71
2022/03/28 14:19:29;;;;;;;18.92;10.70;;;;;;;;;;5030074;28;20103;-71
2022/03/28 14:21:55;;;;;;;22.25;10.43;;;;;;;;;;5031419;28;20067;-72
2022/03/28 14:24:22;;;;;;;22.52;10.35;;;;;;;;;;5030634;28;20033;-72